Terminal Aerodrome Forecast
Issued by NWS Newport/Morehead City, NC

Home | Current Version | Previous Version | Text Only | Print | Product List | Glossary Off
Versions: 1 2 3 4 5 6 7 8 9 10 11 12

000
FTUS42 KMHX 212341
TAFEWN
TAF
KEWN 212341Z 2200/2224 24005KT P6SM VCTS SCT040CB BKN090
     FM220130 VRB04KT P6SM BKN090
     FM221100 35007KT P6SM SKC=

USA.gov is the U.S. government's official web portal to all federal, state and local government web resources and services.